sensor_id;sensor_type;location;lat;lon;timestamp;P1;durP1;ratioP1;P2;durP2;ratioP2
813;SDS011;389;48.710;9.392;2022-11-15T00:00:11;12.63;;;7.17;;
813;SDS011;389;48.710;9.392;2022-11-15T00:02:37;9.47;;;6.47;;
813;SDS011;389;48.710;9.392;2022-11-15T00:05:03;10.07;;;6.60;;
813;SDS011;389;48.710;9.392;2022-11-15T00:07:29;12.53;;;6.73;;
813;SDS011;389;48.710;9.392;2022-11-15T00:09:54;9.37;;;6.20;;
813;SDS011;389;48.710;9.392;2022-11-15T00:12:20;9.27;;;5.87;;
813;SDS011;389;48.710;9.392;2022-11-15T00:14:45;9.23;;;5.43;;
813;SDS011;389;48.710;9.392;2022-11-15T00:17:11;6.87;;;5.53;;
813;SDS011;389;48.710;9.392;2022-11-15T00:19:36;14.93;;;8.10;;
813;SDS011;389;48.710;9.392;2022-11-15T00:22:02;15.50;;;9.43;;
813;SDS011;389;48.710;9.392;2022-11-15T00:24:28;14.80;;;9.87;;
813;SDS011;389;48.710;9.392;2022-11-15T00:26:53;15.10;;;9.40;;
813;SDS011;389;48.710;9.392;2022-11-15T00:29:19;16.80;;;8.60;;
813;SDS011;389;48.710;9.392;2022-11-15T00:31:44;16.10;;;9.03;;
813;SDS011;389;48.710;9.392;2022-11-15T00:34:10;15.80;;;9.60;;
813;SDS011;389;48.710;9.392;2022-11-15T00:36:35;14.10;;;8.80;;
813;SDS011;389;48.710;9.392;2022-11-15T00:39:03;13.13;;;9.03;;
813;SDS011;389;48.710;9.392;2022-11-15T00:41:30;13.37;;;9.40;;
813;SDS011;389;48.710;9.392;2022-11-15T00:43:56;14.20;;;9.87;;
813;SDS011;389;48.710;9.392;2022-11-15T00:46:22;15.73;;;9.23;;
813;SDS011;389;48.710;9.392;2022-11-15T00:48:47;15.60;;;9.70;;
813;SDS011;389;48.710;9.392;2022-11-15T00:51:13;16.37;;;9.70;;
813;SDS011;389;48.710;9.392;2022-11-15T00:53:38;13.60;;;9.03;;
813;SDS011;389;48.710;9.392;2022-11-15T00:56:04;13.60;;;8.70;;
813;SDS011;389;48.710;9.392;2022-11-15T00:58:30;13.57;;;8.10;;
813;SDS011;389;48.710;9.392;2022-11-15T01:00:56;15.50;;;9.03;;
813;SDS011;389;48.710;9.392;2022-11-15T01:03:31;14.90;;;9.00;;
813;SDS011;389;48.710;9.392;2022-11-15T01:06:01;15.50;;;8.40;;
813;SDS011;389;48.710;9.392;2022-11-15T01:08:27;17.30;;;8.80;;
813;SDS011;389;48.710;9.392;2022-11-15T01:10:53;11.23;;;7.47;;
813;SDS011;389;48.710;9.392;2022-11-15T01:13:18;11.77;;;7.50;;
813;SDS011;389;48.710;9.392;2022-11-15T01:15:44;11.87;;;8.23;;
813;SDS011;389;48.710;9.392;2022-11-15T01:18:10;13.20;;;7.90;;
813;SDS011;389;48.710;9.392;2022-11-15T01:20:39;13.10;;;7.93;;
813;SDS011;389;48.710;9.392;2022-11-15T01:23:06;15.87;;;7.93;;
813;SDS011;389;48.710;9.392;2022-11-15T01:25:32;11.97;;;7.70;;
813;SDS011;389;48.710;9.392;2022-11-15T01:27:58;11.20;;;7.57;;
813;SDS011;389;48.710;9.392;2022-11-15T01:30:23;10.00;;;6.57;;
813;SDS011;389;48.710;9.392;2022-11-15T01:32:49;15.40;;;6.87;;
813;SDS011;389;48.710;9.392;2022-11-15T01:35:14;10.70;;;6.10;;
813;SDS011;389;48.710;9.392;2022-11-15T01:37:40;9.53;;;6.33;;
813;SDS011;389;48.710;9.392;2022-11-15T01:40:06;8.93;;;5.87;;
813;SDS011;389;48.710;9.392;2022-11-15T01:42:32;8.00;;;5.20;;
813;SDS011;389;48.710;9.392;2022-11-15T01:44:57;11.13;;;5.13;;
813;SDS011;389;48.710;9.392;2022-11-15T01:47:26;8.83;;;6.20;;
813;SDS011;389;48.710;9.392;2022-11-15T01:52:26;12.67;;;7.37;;
813;SDS011;389;48.710;9.392;2022-11-15T01:55:14;9.10;;;6.27;;
813;SDS011;389;48.710;9.392;2022-11-15T01:57:46;10.83;;;6.73;;
813;SDS011;389;48.710;9.392;2022-11-15T02:00:16;24.37;;;11.60;;
813;SDS011;389;48.710;9.392;2022-11-15T02:02:42;27.70;;;13.37;;
813;SDS011;389;48.710;9.392;2022-11-15T02:05:08;25.33;;;13.30;;
813;SDS011;389;48.710;9.392;2022-11-15T02:07:34;22.83;;;10.50;;
813;SDS011;389;48.710;9.392;2022-11-15T02:10:02;16.30;;;8.80;;
813;SDS011;389;48.710;9.392;2022-11-15T02:12:33;15.80;;;9.20;;
813;SDS011;389;48.710;9.392;2022-11-15T02:14:59;14.57;;;8.57;;
813;SDS011;389;48.710;9.392;2022-11-15T02:17:29;13.93;;;8.90;;
813;SDS011;389;48.710;9.392;2022-11-15T02:22:51;13.43;;;8.60;;
813;SDS011;389;48.710;9.392;2022-11-15T02:25:54;16.47;;;8.03;;
813;SDS011;389;48.710;9.392;2022-11-15T02:36:57;11.37;;;8.17;;
813;SDS011;389;48.710;9.392;2022-11-15T02:39:43;13.70;;;8.50;;
813;SDS011;389;48.710;9.392;2022-11-15T02:42:29;13.20;;;8.67;;
813;SDS011;389;48.710;9.392;2022-11-15T02:45:26;14.00;;;8.77;;
813;SDS011;389;48.710;9.392;2022-11-15T02:47:56;13.83;;;8.13;;
813;SDS011;389;48.710;9.392;2022-11-15T02:50:25;13.20;;;7.80;;
813;SDS011;389;48.710;9.392;2022-11-15T02:52:54;12.63;;;8.13;;
813;SDS011;389;48.710;9.392;2022-11-15T02:55:33;17.67;;;8.03;;
813;SDS011;389;48.710;9.392;2022-11-15T03:06:27;17.80;;;8.40;;
813;SDS011;389;48.710;9.392;2022-11-15T03:09:07;9.40;;;7.63;;
813;SDS011;389;48.710;9.392;2022-11-15T03:11:59;13.13;;;8.60;;
813;SDS011;389;48.710;9.392;2022-11-15T03:14:34;16.20;;;8.20;;
813;SDS011;389;48.710;9.392;2022-11-15T03:17:18;15.57;;;8.33;;
813;SDS011;389;48.710;9.392;2022-11-15T03:19:57;12.77;;;8.47;;
813;SDS011;389;48.710;9.392;2022-11-15T03:22:26;11.87;;;7.90;;
813;SDS011;389;48.710;9.392;2022-11-15T03:24:56;15.00;;;7.60;;
813;SDS011;389;48.710;9.392;2022-11-15T03:27:26;13.93;;;7.83;;
813;SDS011;389;48.710;9.392;2022-11-15T03:29:58;16.80;;;9.10;;
813;SDS011;389;48.710;9.392;2022-11-15T03:32:27;20.77;;;8.33;;
813;SDS011;389;48.710;9.392;2022-11-15T03:34:57;15.13;;;8.67;;
813;SDS011;389;48.710;9.392;2022-11-15T03:40:14;12.90;;;7.90;;
813;SDS011;389;48.710;9.392;2022-11-15T03:45:36;13.97;;;8.90;;
813;SDS011;389;48.710;9.392;2022-11-15T03:48:15;16.50;;;7.60;;
813;SDS011;389;48.710;9.392;2022-11-15T03:50:51;11.53;;;7.47;;
813;SDS011;389;48.710;9.392;2022-11-15T03:53:17;14.17;;;7.80;;
813;SDS011;389;48.710;9.392;2022-11-15T03:55:43;12.87;;;7.70;;
813;SDS011;389;48.710;9.392;2022-11-15T03:58:09;12.23;;;7.37;;
813;SDS011;389;48.710;9.392;2022-11-15T04:00:34;13.20;;;8.00;;
813;SDS011;389;48.710;9.392;2022-11-15T04:03:00;10.37;;;7.33;;
813;SDS011;389;48.710;9.392;2022-11-15T04:05:25;14.93;;;10.00;;
813;SDS011;389;48.710;9.392;2022-11-15T04:07:51;11.50;;;7.90;;
813;SDS011;389;48.710;9.392;2022-11-15T04:10:17;13.63;;;7.80;;
813;SDS011;389;48.710;9.392;2022-11-15T04:12:43;14.23;;;7.70;;
813;SDS011;389;48.710;9.392;2022-11-15T04:15:13;13.00;;;7.73;;
813;SDS011;389;48.710;9.392;2022-11-15T04:17:47;15.43;;;8.97;;
813;SDS011;389;48.710;9.392;2022-11-15T04:20:18;14.63;;;7.93;;
813;SDS011;389;48.710;9.392;2022-11-15T04:23:11;13.07;;;8.83;;
813;SDS011;389;48.710;9.392;2022-11-15T04:25:56;12.03;;;8.13;;
813;SDS011;389;48.710;9.392;2022-11-15T04:28:24;13.70;;;8.40;;
813;SDS011;389;48.710;9.392;2022-11-15T04:30:50;13.13;;;7.83;;
813;SDS011;389;48.710;9.392;2022-11-15T04:33:16;10.60;;;7.70;;
813;SDS011;389;48.710;9.392;2022-11-15T04:35:42;14.37;;;7.67;;
813;SDS011;389;48.710;9.392;2022-11-15T04:38:09;11.63;;;7.40;;
813;SDS011;389;48.710;9.392;2022-11-15T04:40:36;13.50;;;6.77;;
813;SDS011;389;48.710;9.392;2022-11-15T04:43:03;14.13;;;7.40;;
813;SDS011;389;48.710;9.392;2022-11-15T04:45:29;11.77;;;7.10;;
813;SDS011;389;48.710;9.392;2022-11-15T04:47:55;12.40;;;6.80;;
813;SDS011;389;48.710;9.392;2022-11-15T04:50:21;9.87;;;6.87;;
813;SDS011;389;48.710;9.392;2022-11-15T04:52:50;14.63;;;7.50;;
813;SDS011;389;48.710;9.392;2022-11-15T04:55:17;8.87;;;5.87;;
813;SDS011;389;48.710;9.392;2022-11-15T04:57:45;9.40;;;6.80;;
813;SDS011;389;48.710;9.392;2022-11-15T05:00:12;10.23;;;6.30;;
813;SDS011;389;48.710;9.392;2022-11-15T05:02:44;9.57;;;6.30;;
813;SDS011;389;48.710;9.392;2022-11-15T05:05:29;9.50;;;6.77;;
813;SDS011;389;48.710;9.392;2022-11-15T05:07:54;7.30;;;5.33;;
813;SDS011;389;48.710;9.392;2022-11-15T05:10:20;8.93;;;5.87;;
813;SDS011;389;48.710;9.392;2022-11-15T05:12:46;13.23;;;6.90;;
813;SDS011;389;48.710;9.392;2022-11-15T05:15:12;10.20;;;6.43;;
813;SDS011;389;48.710;9.392;2022-11-15T05:17:37;10.97;;;6.40;;
813;SDS011;389;48.710;9.392;2022-11-15T05:20:03;11.80;;;6.90;;
813;SDS011;389;48.710;9.392;2022-11-15T05:22:29;12.10;;;6.47;;
813;SDS011;389;48.710;9.392;2022-11-15T05:24:55;11.30;;;6.27;;
813;SDS011;389;48.710;9.392;2022-11-15T05:27:22;13.43;;;6.10;;
813;SDS011;389;48.710;9.392;2022-11-15T05:29:49;9.33;;;6.37;;
813;SDS011;389;48.710;9.392;2022-11-15T05:32:15;10.93;;;6.40;;
813;SDS011;389;48.710;9.392;2022-11-15T05:37:07;11.47;;;6.73;;
813;SDS011;389;48.710;9.392;2022-11-15T05:39:33;13.67;;;7.60;;
813;SDS011;389;48.710;9.392;2022-11-15T05:42:00;11.93;;;7.47;;
813;SDS011;389;48.710;9.392;2022-11-15T05:44:39;9.67;;;6.70;;
813;SDS011;389;48.710;9.392;2022-11-15T05:47:08;9.13;;;6.27;;
813;SDS011;389;48.710;9.392;2022-11-15T05:49:37;14.23;;;7.27;;
813;SDS011;389;48.710;9.392;2022-11-15T05:52:05;10.43;;;6.23;;
813;SDS011;389;48.710;9.392;2022-11-15T05:54:35;11.03;;;7.20;;
813;SDS011;389;48.710;9.392;2022-11-15T05:57:01;12.43;;;8.07;;
813;SDS011;389;48.710;9.392;2022-11-15T05:59:29;11.37;;;6.73;;
813;SDS011;389;48.710;9.392;2022-11-15T06:01:56;12.60;;;8.30;;
813;SDS011;389;48.710;9.392;2022-11-15T06:04:22;16.47;;;10.57;;
813;SDS011;389;48.710;9.392;2022-11-15T06:06:47;15.53;;;9.83;;
813;SDS011;389;48.710;9.392;2022-11-15T06:09:13;15.30;;;8.60;;
813;SDS011;389;48.710;9.392;2022-11-15T06:11:39;15.60;;;8.20;;
813;SDS011;389;48.710;9.392;2022-11-15T06:14:04;37.47;;;17.60;;
813;SDS011;389;48.710;9.392;2022-11-15T06:16:30;18.43;;;9.50;;
813;SDS011;389;48.710;9.392;2022-11-15T06:18:56;21.03;;;10.40;;
813;SDS011;389;48.710;9.392;2022-11-15T06:21:22;19.93;;;10.20;;
813;SDS011;389;48.710;9.392;2022-11-15T06:23:47;22.23;;;9.37;;
813;SDS011;389;48.710;9.392;2022-11-15T06:26:13;11.27;;;7.63;;
813;SDS011;389;48.710;9.392;2022-11-15T06:28:38;15.90;;;9.40;;
813;SDS011;389;48.710;9.392;2022-11-15T06:31:08;15.50;;;8.37;;
813;SDS011;389;48.710;9.392;2022-11-15T06:33:36;15.07;;;8.50;;
813;SDS011;389;48.710;9.392;2022-11-15T06:36:02;17.83;;;9.37;;
813;SDS011;389;48.710;9.392;2022-11-15T06:38:29;16.67;;;9.90;;
813;SDS011;389;48.710;9.392;2022-11-15T06:40:55;17.50;;;9.33;;
813;SDS011;389;48.710;9.392;2022-11-15T06:43:25;16.13;;;8.30;;
813;SDS011;389;48.710;9.392;2022-11-15T06:45:51;15.10;;;9.60;;
813;SDS011;389;48.710;9.392;2022-11-15T06:48:16;16.23;;;9.77;;
813;SDS011;389;48.710;9.392;2022-11-15T06:50:42;12.30;;;7.87;;
813;SDS011;389;48.710;9.392;2022-11-15T06:53:07;14.40;;;8.87;;
813;SDS011;389;48.710;9.392;2022-11-15T06:55:33;15.97;;;9.30;;
813;SDS011;389;48.710;9.392;2022-11-15T06:57:58;20.87;;;10.60;;
813;SDS011;389;48.710;9.392;2022-11-15T07:00:24;21.83;;;10.23;;
813;SDS011;389;48.710;9.392;2022-11-15T07:02:50;12.50;;;8.03;;
813;SDS011;389;48.710;9.392;2022-11-15T07:05:15;17.33;;;8.60;;
813;SDS011;389;48.710;9.392;2022-11-15T07:07:41;12.60;;;7.97;;
813;SDS011;389;48.710;9.392;2022-11-15T07:10:07;12.97;;;7.73;;
813;SDS011;389;48.710;9.392;2022-11-15T07:12:35;13.50;;;7.70;;
813;SDS011;389;48.710;9.392;2022-11-15T07:15:01;17.87;;;8.57;;
813;SDS011;389;48.710;9.392;2022-11-15T07:17:26;14.90;;;7.97;;
813;SDS011;389;48.710;9.392;2022-11-15T07:19:52;12.03;;;7.23;;
813;SDS011;389;48.710;9.392;2022-11-15T07:22:17;13.43;;;7.43;;
813;SDS011;389;48.710;9.392;2022-11-15T07:24:43;12.10;;;6.90;;
813;SDS011;389;48.710;9.392;2022-11-15T07:27:08;12.00;;;7.53;;
813;SDS011;389;48.710;9.392;2022-11-15T07:29:34;10.97;;;7.37;;
813;SDS011;389;48.710;9.392;2022-11-15T07:31:59;12.17;;;7.20;;
813;SDS011;389;48.710;9.392;2022-11-15T07:34:25;13.80;;;7.27;;
813;SDS011;389;48.710;9.392;2022-11-15T07:36:51;11.67;;;6.80;;
813;SDS011;389;48.710;9.392;2022-11-15T07:39:16;11.53;;;7.57;;
813;SDS011;389;48.710;9.392;2022-11-15T07:41:42;15.37;;;8.73;;
813;SDS011;389;48.710;9.392;2022-11-15T07:44:08;14.63;;;9.30;;
813;SDS011;389;48.710;9.392;2022-11-15T07:46:34;17.00;;;8.83;;
813;SDS011;389;48.710;9.392;2022-11-15T07:48:59;20.77;;;9.50;;
813;SDS011;389;48.710;9.392;2022-11-15T07:51:25;18.03;;;10.37;;
813;SDS011;389;48.710;9.392;2022-11-15T07:53:50;15.43;;;10.07;;
813;SDS011;389;48.710;9.392;2022-11-15T07:56:16;17.20;;;9.50;;
813;SDS011;389;48.710;9.392;2022-11-15T07:58:42;15.33;;;9.40;;
813;SDS011;389;48.710;9.392;2022-11-15T08:01:08;13.70;;;8.80;;
813;SDS011;389;48.710;9.392;2022-11-15T08:03:35;14.90;;;9.00;;
813;SDS011;389;48.710;9.392;2022-11-15T08:06:01;15.97;;;9.80;;
813;SDS011;389;48.710;9.392;2022-11-15T08:08:28;17.33;;;10.30;;
813;SDS011;389;48.710;9.392;2022-11-15T08:10:54;16.37;;;10.10;;
813;SDS011;389;48.710;9.392;2022-11-15T08:13:19;21.27;;;11.10;;
813;SDS011;389;48.710;9.392;2022-11-15T08:15:46;19.03;;;10.90;;
813;SDS011;389;48.710;9.392;2022-11-15T08:18:13;20.00;;;10.50;;
813;SDS011;389;48.710;9.392;2022-11-15T08:20:40;16.23;;;10.63;;
813;SDS011;389;48.710;9.392;2022-11-15T08:23:06;20.67;;;11.90;;
813;SDS011;389;48.710;9.392;2022-11-15T08:25:33;16.83;;;11.70;;
813;SDS011;389;48.710;9.392;2022-11-15T08:28:00;21.63;;;13.67;;
813;SDS011;389;48.710;9.392;2022-11-15T08:30:28;19.40;;;12.53;;
813;SDS011;389;48.710;9.392;2022-11-15T08:32:55;19.80;;;12.57;;
813;SDS011;389;48.710;9.392;2022-11-15T08:35:22;18.50;;;13.00;;
813;SDS011;389;48.710;9.392;2022-11-15T08:37:48;22.10;;;11.90;;
813;SDS011;389;48.710;9.392;2022-11-15T08:40:14;19.77;;;11.67;;
813;SDS011;389;48.710;9.392;2022-11-15T08:42:40;19.23;;;12.77;;
813;SDS011;389;48.710;9.392;2022-11-15T08:45:06;24.87;;;14.03;;
813;SDS011;389;48.710;9.392;2022-11-15T08:47:33;33.53;;;14.10;;
813;SDS011;389;48.710;9.392;2022-11-15T08:49:59;23.83;;;13.03;;
813;SDS011;389;48.710;9.392;2022-11-15T08:52:25;20.00;;;12.17;;
813;SDS011;389;48.710;9.392;2022-11-15T08:54:50;23.23;;;13.80;;
813;SDS011;389;48.710;9.392;2022-11-15T08:57:16;21.33;;;12.50;;
813;SDS011;389;48.710;9.392;2022-11-15T08:59:42;21.93;;;13.17;;
813;SDS011;389;48.710;9.392;2022-11-15T09:02:11;23.57;;;12.77;;
813;SDS011;389;48.710;9.392;2022-11-15T09:04:42;16.70;;;11.07;;
813;SDS011;389;48.710;9.392;2022-11-15T09:07:09;20.10;;;12.70;;
813;SDS011;389;48.710;9.392;2022-11-15T09:09:35;16.90;;;11.90;;
813;SDS011;389;48.710;9.392;2022-11-15T09:12:01;18.90;;;12.77;;
813;SDS011;389;48.710;9.392;2022-11-15T09:14:26;19.80;;;12.17;;
813;SDS011;389;48.710;9.392;2022-11-15T09:16:52;17.23;;;11.40;;
813;SDS011;389;48.710;9.392;2022-11-15T09:19:18;19.33;;;12.87;;
813;SDS011;389;48.710;9.392;2022-11-15T09:21:43;15.97;;;11.20;;
813;SDS011;389;48.710;9.392;2022-11-15T09:24:09;18.37;;;11.47;;
813;SDS011;389;48.710;9.392;2022-11-15T09:26:34;16.90;;;10.17;;
813;SDS011;389;48.710;9.392;2022-11-15T09:29:00;17.53;;;11.50;;
813;SDS011;389;48.710;9.392;2022-11-15T09:31:26;17.67;;;10.93;;
813;SDS011;389;48.710;9.392;2022-11-15T09:33:54;15.23;;;10.47;;
813;SDS011;389;48.710;9.392;2022-11-15T09:36:19;14.97;;;10.60;;
813;SDS011;389;48.710;9.392;2022-11-15T09:38:45;16.17;;;10.60;;
813;SDS011;389;48.710;9.392;2022-11-15T09:48:49;18.17;;;11.30;;
813;SDS011;389;48.710;9.392;2022-11-15T09:51:25;18.90;;;12.97;;
813;SDS011;389;48.710;9.392;2022-11-15T09:56:25;21.77;;;13.77;;
813;SDS011;389;48.710;9.392;2022-11-15T09:59:08;19.57;;;12.57;;
813;SDS011;389;48.710;9.392;2022-11-15T10:04:59;17.73;;;12.00;;
813;SDS011;389;48.710;9.392;2022-11-15T10:07:28;18.70;;;12.70;;
813;SDS011;389;48.710;9.392;2022-11-15T10:12:57;17.73;;;11.60;;
813;SDS011;389;48.710;9.392;2022-11-15T10:15:24;18.40;;;12.10;;
813;SDS011;389;48.710;9.392;2022-11-15T10:20:29;18.77;;;11.97;;
813;SDS011;389;48.710;9.392;2022-11-15T10:23:01;16.93;;;11.00;;
813;SDS011;389;48.710;9.392;2022-11-15T10:25:31;17.37;;;11.33;;
813;SDS011;389;48.710;9.392;2022-11-15T10:30:51;18.17;;;12.00;;
813;SDS011;389;48.710;9.392;2022-11-15T10:46:33;14.97;;;10.93;;
813;SDS011;389;48.710;9.392;2022-11-15T10:49:52;14.70;;;11.20;;
813;SDS011;389;48.710;9.392;2022-11-15T10:51:54;18.40;;;11.20;;
813;SDS011;389;48.710;9.392;2022-11-15T10:54:37;20.67;;;11.60;;
813;SDS011;389;48.710;9.392;2022-11-15T10:59:42;16.93;;;11.80;;
813;SDS011;389;48.710;9.392;2022-11-15T11:03:20;16.97;;;12.00;;
813;SDS011;389;48.710;9.392;2022-11-15T11:05:37;18.57;;;11.50;;
813;SDS011;389;48.710;9.392;2022-11-15T11:08:16;16.57;;;11.00;;
813;SDS011;389;48.710;9.392;2022-11-15T11:10:56;17.00;;;11.07;;
813;SDS011;389;48.710;9.392;2022-11-15T11:13:27;16.40;;;10.50;;
813;SDS011;389;48.710;9.392;2022-11-15T11:21:21;17.70;;;12.37;;
813;SDS011;389;48.710;9.392;2022-11-15T11:26:54;12.83;;;8.67;;
813;SDS011;389;48.710;9.392;2022-11-15T11:35:18;11.20;;;8.70;;
813;SDS011;389;48.710;9.392;2022-11-15T11:37:53;13.37;;;8.87;;
813;SDS011;389;48.710;9.392;2022-11-15T11:40:43;10.87;;;8.20;;
813;SDS011;389;48.710;9.392;2022-11-15T11:43:19;16.87;;;8.67;;
813;SDS011;389;48.710;9.392;2022-11-15T11:48:33;10.40;;;8.13;;
813;SDS011;389;48.710;9.392;2022-11-15T11:51:18;12.83;;;7.80;;
813;SDS011;389;48.710;9.392;2022-11-15T11:53:47;12.10;;;7.97;;
813;SDS011;389;48.710;9.392;2022-11-15T11:56:29;15.50;;;9.53;;
813;SDS011;389;48.710;9.392;2022-11-15T12:01:53;11.00;;;8.43;;
813;SDS011;389;48.710;9.392;2022-11-15T12:04:20;14.90;;;8.13;;
813;SDS011;389;48.710;9.392;2022-11-15T12:06:59;12.83;;;8.93;;
813;SDS011;389;48.710;9.392;2022-11-15T12:09:38;16.43;;;9.37;;
813;SDS011;389;48.710;9.392;2022-11-15T12:12:09;12.67;;;8.77;;
813;SDS011;389;48.710;9.392;2022-11-15T12:17:35;12.10;;;8.43;;
813;SDS011;389;48.710;9.392;2022-11-15T12:20:04;12.50;;;8.93;;
813;SDS011;389;48.710;9.392;2022-11-15T12:25:53;12.43;;;9.00;;
813;SDS011;389;48.710;9.392;2022-11-15T12:28:34;11.23;;;8.70;;
813;SDS011;389;48.710;9.392;2022-11-15T12:34:05;10.60;;;8.30;;
813;SDS011;389;48.710;9.392;2022-11-15T12:36:42;11.67;;;7.10;;
813;SDS011;389;48.710;9.392;2022-11-15T12:39:09;11.93;;;7.90;;
813;SDS011;389;48.710;9.392;2022-11-15T12:41:43;12.07;;;7.63;;
813;SDS011;389;48.710;9.392;2022-11-15T13:02:33;8.23;;;4.90;;
813;SDS011;389;48.710;9.392;2022-11-15T13:17:54;6.90;;;4.70;;
813;SDS011;389;48.710;9.392;2022-11-15T13:20:31;8.63;;;4.97;;
813;SDS011;389;48.710;9.392;2022-11-15T13:23:11;7.60;;;5.80;;
813;SDS011;389;48.710;9.392;2022-11-15T13:28:36;7.93;;;4.97;;
813;SDS011;389;48.710;9.392;2022-11-15T13:31:21;8.40;;;5.60;;
813;SDS011;389;48.710;9.392;2022-11-15T13:34:24;7.80;;;5.30;;
813;SDS011;389;48.710;9.392;2022-11-15T13:36:53;9.20;;;5.50;;
813;SDS011;389;48.710;9.392;2022-11-15T13:39:29;9.30;;;5.30;;
813;SDS011;389;48.710;9.392;2022-11-15T13:41:56;9.10;;;5.30;;
813;SDS011;389;48.710;9.392;2022-11-15T13:44:30;6.17;;;4.60;;
813;SDS011;389;48.710;9.392;2022-11-15T13:47:13;4.63;;;4.13;;
813;SDS011;389;48.710;9.392;2022-11-15T13:49:39;6.70;;;4.90;;
813;SDS011;389;48.710;9.392;2022-11-15T13:52:06;7.37;;;5.13;;
813;SDS011;389;48.710;9.392;2022-11-15T13:54:38;6.40;;;4.80;;
813;SDS011;389;48.710;9.392;2022-11-15T13:57:53;5.30;;;4.63;;
813;SDS011;389;48.710;9.392;2022-11-15T14:00:19;5.67;;;4.73;;
813;SDS011;389;48.710;9.392;2022-11-15T14:03:25;5.93;;;4.77;;
813;SDS011;389;48.710;9.392;2022-11-15T14:08:32;6.23;;;4.67;;
813;SDS011;389;48.710;9.392;2022-11-15T14:11:05;7.33;;;5.20;;
813;SDS011;389;48.710;9.392;2022-11-15T14:13:31;8.00;;;5.60;;
813;SDS011;389;48.710;9.392;2022-11-15T14:16:17;7.60;;;4.30;;
813;SDS011;389;48.710;9.392;2022-11-15T14:21:15;8.80;;;5.40;;
813;SDS011;389;48.710;9.392;2022-11-15T14:23:41;9.33;;;5.17;;
813;SDS011;389;48.710;9.392;2022-11-15T14:26:10;8.13;;;5.30;;
813;SDS011;389;48.710;9.392;2022-11-15T14:28:57;7.20;;;5.30;;
813;SDS011;389;48.710;9.392;2022-11-15T14:31:42;7.07;;;4.97;;
813;SDS011;389;48.710;9.392;2022-11-15T14:34:09;7.83;;;5.60;;
813;SDS011;389;48.710;9.392;2022-11-15T14:36:34;10.20;;;7.30;;
813;SDS011;389;48.710;9.392;2022-11-15T14:39:00;9.60;;;7.50;;
813;SDS011;389;48.710;9.392;2022-11-15T14:41:26;12.43;;;7.90;;
813;SDS011;389;48.710;9.392;2022-11-15T14:43:52;9.47;;;6.90;;
813;SDS011;389;48.710;9.392;2022-11-15T14:46:18;13.00;;;7.70;;
813;SDS011;389;48.710;9.392;2022-11-15T14:48:45;14.63;;;9.30;;
813;SDS011;389;48.710;9.392;2022-11-15T14:51:14;10.07;;;7.00;;
813;SDS011;389;48.710;9.392;2022-11-15T14:53:41;10.40;;;6.30;;
813;SDS011;389;48.710;9.392;2022-11-15T14:56:08;10.03;;;6.50;;
813;SDS011;389;48.710;9.392;2022-11-15T14:58:34;10.87;;;7.67;;
813;SDS011;389;48.710;9.392;2022-11-15T15:00:59;9.50;;;6.83;;
813;SDS011;389;48.710;9.392;2022-11-15T15:03:26;9.23;;;6.70;;
813;SDS011;389;48.710;9.392;2022-11-15T15:05:52;9.50;;;6.53;;
813;SDS011;389;48.710;9.392;2022-11-15T15:08:17;8.53;;;6.50;;
813;SDS011;389;48.710;9.392;2022-11-15T15:10:44;9.83;;;6.43;;
813;SDS011;389;48.710;9.392;2022-11-15T15:13:31;8.27;;;7.47;;
813;SDS011;389;48.710;9.392;2022-11-15T15:15:56;8.90;;;7.03;;
813;SDS011;389;48.710;9.392;2022-11-15T15:18:22;9.50;;;7.00;;
813;SDS011;389;48.710;9.392;2022-11-15T15:20:50;11.23;;;7.10;;
813;SDS011;389;48.710;9.392;2022-11-15T15:23:21;10.60;;;7.40;;
813;SDS011;389;48.710;9.392;2022-11-15T15:25:48;10.00;;;6.87;;
813;SDS011;389;48.710;9.392;2022-11-15T15:28:14;12.17;;;7.30;;
813;SDS011;389;48.710;9.392;2022-11-15T15:30:40;10.63;;;7.63;;
813;SDS011;389;48.710;9.392;2022-11-15T15:33:06;11.67;;;7.60;;
813;SDS011;389;48.710;9.392;2022-11-15T15:35:32;10.93;;;7.57;;
813;SDS011;389;48.710;9.392;2022-11-15T15:37:59;9.07;;;7.73;;
813;SDS011;389;48.710;9.392;2022-11-15T15:40:25;11.00;;;8.10;;
813;SDS011;389;48.710;9.392;2022-11-15T15:42:52;22.43;;;11.47;;
813;SDS011;389;48.710;9.392;2022-11-15T15:45:18;16.77;;;11.50;;
813;SDS011;389;48.710;9.392;2022-11-15T15:47:44;17.37;;;11.50;;
813;SDS011;389;48.710;9.392;2022-11-15T15:52:39;19.37;;;12.20;;
813;SDS011;389;48.710;9.392;2022-11-15T15:55:04;23.20;;;14.10;;
813;SDS011;389;48.710;9.392;2022-11-15T15:57:30;23.90;;;14.30;;
813;SDS011;389;48.710;9.392;2022-11-15T15:59:56;21.63;;;15.50;;
813;SDS011;389;48.710;9.392;2022-11-15T16:02:21;23.73;;;14.80;;
813;SDS011;389;48.710;9.392;2022-11-15T16:04:47;21.00;;;12.90;;
813;SDS011;389;48.710;9.392;2022-11-15T16:07:16;20.87;;;14.33;;
813;SDS011;389;48.710;9.392;2022-11-15T16:09:46;20.30;;;12.00;;
813;SDS011;389;48.710;9.392;2022-11-15T16:12:27;22.67;;;13.80;;
813;SDS011;389;48.710;9.392;2022-11-15T16:14:53;19.03;;;13.40;;
813;SDS011;389;48.710;9.392;2022-11-15T16:17:23;19.67;;;13.40;;
813;SDS011;389;48.710;9.392;2022-11-15T16:20:02;21.00;;;13.67;;
813;SDS011;389;48.710;9.392;2022-11-15T16:22:28;19.50;;;12.20;;
813;SDS011;389;48.710;9.392;2022-11-15T16:24:54;20.77;;;12.00;;
813;SDS011;389;48.710;9.392;2022-11-15T16:27:20;17.97;;;10.50;;
813;SDS011;389;48.710;9.392;2022-11-15T16:29:47;15.67;;;9.40;;
813;SDS011;389;48.710;9.392;2022-11-15T16:32:13;18.83;;;12.50;;
813;SDS011;389;48.710;9.392;2022-11-15T16:34:40;22.63;;;14.40;;
813;SDS011;389;48.710;9.392;2022-11-15T16:37:08;23.10;;;14.77;;
813;SDS011;389;48.710;9.392;2022-11-15T16:39:57;32.53;;;19.80;;
813;SDS011;389;48.710;9.392;2022-11-15T16:42:22;32.77;;;21.30;;
813;SDS011;389;48.710;9.392;2022-11-15T16:44:49;31.00;;;18.93;;
813;SDS011;389;48.710;9.392;2022-11-15T16:47:18;20.63;;;12.60;;
813;SDS011;389;48.710;9.392;2022-11-15T16:49:44;18.17;;;11.23;;
813;SDS011;389;48.710;9.392;2022-11-15T16:52:10;10.17;;;8.00;;
813;SDS011;389;48.710;9.392;2022-11-15T16:54:36;12.33;;;7.17;;
813;SDS011;389;48.710;9.392;2022-11-15T16:57:02;12.67;;;7.13;;
813;SDS011;389;48.710;9.392;2022-11-15T17:01:58;13.60;;;7.57;;
813;SDS011;389;48.710;9.392;2022-11-15T17:04:24;10.27;;;7.77;;
813;SDS011;389;48.710;9.392;2022-11-15T17:06:51;15.50;;;9.30;;
813;SDS011;389;48.710;9.392;2022-11-15T17:09:18;9.90;;;6.90;;
813;SDS011;389;48.710;9.392;2022-11-15T17:11:45;10.50;;;7.07;;
813;SDS011;389;48.710;9.392;2022-11-15T17:14:14;9.23;;;5.50;;
813;SDS011;389;48.710;9.392;2022-11-15T17:16:40;6.67;;;5.80;;
813;SDS011;389;48.710;9.392;2022-11-15T17:19:12;6.03;;;4.90;;
813;SDS011;389;48.710;9.392;2022-11-15T17:21:39;8.47;;;6.40;;
813;SDS011;389;48.710;9.392;2022-11-15T17:24:05;7.80;;;5.57;;
813;SDS011;389;48.710;9.392;2022-11-15T17:26:30;9.40;;;6.60;;
813;SDS011;389;48.710;9.392;2022-11-15T17:28:56;10.97;;;7.17;;
813;SDS011;389;48.710;9.392;2022-11-15T17:31:22;11.60;;;6.60;;
813;SDS011;389;48.710;9.392;2022-11-15T17:33:49;11.17;;;7.20;;
813;SDS011;389;48.710;9.392;2022-11-15T17:36:14;13.00;;;6.97;;
813;SDS011;389;48.710;9.392;2022-11-15T17:38:40;10.33;;;6.80;;
813;SDS011;389;48.710;9.392;2022-11-15T17:41:08;10.07;;;6.83;;
813;SDS011;389;48.710;9.392;2022-11-15T17:43:36;10.43;;;7.00;;
813;SDS011;389;48.710;9.392;2022-11-15T17:46:03;12.03;;;6.83;;
813;SDS011;389;48.710;9.392;2022-11-15T17:48:31;12.63;;;7.37;;
813;SDS011;389;48.710;9.392;2022-11-15T17:50:58;12.27;;;7.50;;
813;SDS011;389;48.710;9.392;2022-11-15T17:53:25;12.50;;;8.00;;
813;SDS011;389;48.710;9.392;2022-11-15T17:55:51;13.60;;;7.10;;
813;SDS011;389;48.710;9.392;2022-11-15T17:58:17;11.70;;;7.53;;
813;SDS011;389;48.710;9.392;2022-11-15T18:00:46;12.13;;;7.50;;
813;SDS011;389;48.710;9.392;2022-11-15T18:03:13;16.97;;;8.60;;